createdAt,value
2022-12-13T00:01:22.524Z,63.61
2022-12-13T00:03:50.158Z,63.87
2022-12-13T00:06:19.012Z,63.82
2022-12-13T00:08:46.859Z,63.98
2022-12-13T00:11:15.878Z,64.09
2022-12-13T00:13:46.643Z,64.17
2022-12-13T00:16:16.555Z,64.55
2022-12-13T00:18:44.875Z,64.54
2022-12-13T00:21:15.204Z,64.51
2022-12-13T00:23:44.181Z,64.71
2022-12-13T00:26:13.985Z,64.60
2022-12-13T00:28:42.275Z,64.55
2022-12-13T00:31:52.970Z,65.00
2022-12-13T00:33:57.450Z,64.50
2022-12-13T00:36:24.960Z,64.69
2022-12-13T00:39:01.403Z,64.67
2022-12-13T00:41:31.143Z,64.65
2022-12-13T00:43:58.871Z,64.47
2022-12-13T00:46:27.230Z,64.47
2022-12-13T00:48:57.560Z,64.53
2022-12-13T00:51:26.160Z,65.12
2022-12-13T00:53:55.554Z,65.19
2022-12-13T00:56:26.116Z,64.61
2022-12-13T00:58:55.170Z,64.79
2022-12-13T01:01:25.291Z,64.35
2022-12-13T01:03:55.169Z,64.10
2022-12-13T01:06:27.227Z,64.47
2022-12-13T01:08:56.140Z,64.40
2022-12-13T01:11:23.987Z,64.62
2022-12-13T01:13:51.534Z,64.56
2022-12-13T01:16:19.302Z,65.15
2022-12-13T01:18:46.913Z,65.19
2022-12-13T01:21:16.800Z,65.71
2022-12-13T01:23:46.392Z,65.80
2022-12-13T01:26:19.706Z,66.36
2022-12-13T01:28:48.740Z,66.69
2022-12-13T01:31:19.809Z,66.50
2022-12-13T01:33:49.003Z,66.71
2022-12-13T01:36:27.420Z,66.12
2022-12-13T01:39:02.854Z,66.08
2022-12-13T01:41:53.079Z,66.54
2022-12-13T01:45:03.504Z,66.51
2022-12-13T01:47:36.925Z,66.62
2022-12-13T01:50:09.372Z,66.29
2022-12-13T01:52:42.975Z,65.83
2022-12-13T01:55:19.853Z,65.78
2022-12-13T01:57:56.899Z,65.67
2022-12-13T02:00:31.639Z,66.05
2022-12-13T02:03:07.838Z,65.59
2022-12-13T02:05:46.225Z,65.96
2022-12-13T02:08:20.965Z,65.63
2022-12-13T02:10:56.374Z,64.41
2022-12-13T02:13:30.967Z,64.21
2022-12-13T02:16:13.173Z,65.57
2022-12-13T02:19:10.414Z,65.73
2022-12-13T02:21:54.745Z,66.05
2022-12-13T02:24:45.976Z,66.87
2022-12-13T02:27:42.859Z,66.81
2022-12-13T02:30:43.052Z,64.62
2022-12-13T02:33:40.659Z,65.22
2022-12-13T02:36:15.163Z,64.53
2022-12-13T02:38:55.057Z,65.31
2022-12-13T02:41:38.912Z,65.87
2022-12-13T02:44:22.764Z,64.27
2022-12-13T02:46:59.209Z,64.69
2022-12-13T02:49:31.018Z,65.91
2022-12-13T02:52:00.284Z,65.05
2022-12-13T02:54:28.168Z,65.20
2022-12-13T02:56:57.112Z,64.20
2022-12-13T02:59:29.018Z,64.48
2022-12-13T03:02:10.118Z,65.63
2022-12-13T03:05:08.124Z,66.57
2022-12-13T03:07:45.288Z,65.88
2022-12-13T03:10:20.649Z,65.31
2022-12-13T03:13:13.019Z,64.95
2022-12-13T03:15:46.944Z,65.74
2022-12-13T03:18:19.439Z,65.39
2022-12-13T03:20:49.468Z,65.81
2022-12-13T03:23:18.322Z,66.08
2022-12-13T03:25:48.367Z,65.40
2022-12-13T03:28:15.957Z,65.09
2022-12-13T03:30:43.533Z,65.17
2022-12-13T03:33:11.165Z,65.15
2022-12-13T03:35:45.246Z,65.86
2022-12-13T03:38:21.943Z,65.21
2022-12-13T03:40:52.642Z,64.96
2022-12-13T03:43:21.575Z,65.60
2022-12-13T03:45:50.672Z,65.72
2022-12-13T03:48:22.537Z,65.24
2022-12-13T03:50:53.826Z,65.02
2022-12-13T03:53:33.132Z,65.60
2022-12-13T03:56:02.763Z,65.85
2022-12-13T03:58:35.363Z,65.51
2022-12-13T04:01:06.303Z,64.89
2022-12-13T04:03:34.332Z,65.16
2022-12-13T04:06:03.852Z,65.43
2022-12-13T04:08:31.520Z,65.52
2022-12-13T04:10:59.290Z,65.71
2022-12-13T04:13:35.052Z,64.98
2022-12-13T04:16:03.499Z,64.93
2022-12-13T04:18:31.585Z,65.35
2022-12-13T04:20:59.170Z,65.30
2022-12-13T04:23:28.154Z,65.38
2022-12-13T04:25:55.805Z,65.62
2022-12-13T04:28:23.475Z,66.08
2022-12-13T04:30:53.301Z,65.96
2022-12-13T04:33:22.410Z,65.26
2022-12-13T04:35:50.721Z,65.29
2022-12-13T04:38:18.606Z,65.56
2022-12-13T04:40:47.498Z,66.20
2022-12-13T04:43:15.168Z,65.21
2022-12-13T04:45:42.936Z,64.77
2022-12-13T04:48:10.613Z,64.26
2022-12-13T04:50:38.266Z,64.15
2022-12-13T04:53:05.827Z,64.13
2022-12-13T04:55:33.441Z,63.89
2022-12-13T04:58:02.572Z,63.70
2022-12-13T05:00:30.160Z,63.83
2022-12-13T05:02:57.835Z,64.15
2022-12-13T05:05:25.432Z,64.98
2022-12-13T05:07:53.142Z,65.37
2022-12-13T05:10:33.812Z,64.17
2022-12-13T05:13:04.919Z,62.80
2022-12-13T05:15:32.657Z,63.19
2022-12-13T05:18:01.727Z,63.45
2022-12-13T05:20:38.417Z,63.59
2022-12-13T05:23:06.024Z,63.82
2022-12-13T05:25:34.306Z,64.53
2022-12-13T05:28:09.014Z,63.88
2022-12-13T05:30:53.178Z,64.90
2022-12-13T05:33:20.755Z,65.12
2022-12-13T05:35:48.575Z,65.01
2022-12-13T05:38:16.221Z,65.21
2022-12-13T05:40:43.935Z,65.02
2022-12-13T05:43:22.054Z,65.54
2022-12-13T05:45:50.169Z,65.89
2022-12-13T05:48:24.440Z,64.88
2022-12-13T05:51:09.993Z,64.31
2022-12-13T05:53:39.243Z,64.21
2022-12-13T05:56:07.530Z,63.99
2022-12-13T05:58:36.198Z,64.86
2022-12-13T06:01:10.968Z,64.76
2022-12-13T06:03:40.266Z,63.66
2022-12-13T06:06:10.436Z,63.65
2022-12-13T06:08:38.474Z,63.45
2022-12-13T06:11:10.049Z,64.02
2022-12-13T06:13:42.276Z,63.44
2022-12-13T06:16:21.982Z,62.68
2022-12-13T06:19:01.302Z,63.80
2022-12-13T06:21:41.314Z,64.03
2022-12-13T06:24:14.351Z,63.10
2022-12-13T06:26:45.243Z,63.61
2022-12-13T06:29:22.668Z,63.33
2022-12-13T06:31:54.919Z,62.97
2022-12-13T06:34:33.689Z,62.60
2022-12-13T06:37:03.168Z,63.58
2022-12-13T06:39:33.231Z,62.56
2022-12-13T06:42:03.179Z,62.06
2022-12-13T06:44:30.750Z,62.27
2022-12-13T06:47:11.896Z,62.64
2022-12-13T06:49:44.073Z,62.12
2022-12-13T06:52:13.152Z,62.53
2022-12-13T06:54:41.447Z,62.88
2022-12-13T06:57:09.207Z,62.58
2022-12-13T06:59:36.901Z,62.97
2022-12-13T07:02:04.688Z,63.49
2022-12-13T07:04:32.673Z,64.04
2022-12-13T07:07:02.729Z,63.87
2022-12-13T07:09:31.392Z,64.50
2022-12-13T07:11:59.354Z,64.97
2022-12-13T07:14:28.292Z,64.99
2022-12-13T07:17:03.103Z,65.01
2022-12-13T07:19:35.204Z,65.20
2022-12-13T07:22:05.741Z,65.81
2022-12-13T07:24:33.665Z,65.92
2022-12-13T07:27:01.152Z,64.96
2022-12-13T07:29:28.673Z,64.79
2022-12-13T07:32:01.205Z,65.29
2022-12-13T07:34:29.862Z,64.72
2022-12-13T07:36:57.465Z,64.80
2022-12-13T07:39:26.932Z,64.94
2022-12-13T07:41:56.463Z,65.18
2022-12-13T07:44:24.633Z,64.59
2022-12-13T07:46:52.240Z,64.60
2022-12-13T07:49:20.186Z,64.64
2022-12-13T07:51:47.719Z,64.09
2022-12-13T07:54:15.259Z,63.85
2022-12-13T07:56:44.203Z,63.87
2022-12-13T07:59:13.537Z,63.89
2022-12-13T08:01:41.167Z,65.02
2022-12-13T08:04:08.779Z,64.85
2022-12-13T08:06:36.966Z,64.60
2022-12-13T08:09:05.656Z,65.06
2022-12-13T08:11:33.188Z,64.29
2022-12-13T08:14:02.169Z,63.73
2022-12-13T08:16:30.319Z,64.17
2022-12-13T08:19:01.716Z,64.85
2022-12-13T08:24:23.706Z,65.55
2022-12-13T08:26:51.395Z,65.61
2022-12-13T08:29:23.149Z,66.21
2022-12-13T08:32:01.961Z,65.69
2022-12-13T08:34:29.790Z,65.99
2022-12-13T08:37:01.795Z,65.76
2022-12-13T08:39:30.731Z,65.73
2022-12-13T08:42:16.966Z,65.71
2022-12-13T08:44:51.673Z,63.91
2022-12-13T08:47:24.193Z,63.81
2022-12-13T08:49:54.357Z,64.44
2022-12-13T08:52:23.375Z,64.17
2022-12-13T08:54:50.990Z,63.83
2022-12-13T08:57:18.576Z,63.49
2022-12-13T08:59:46.326Z,63.23
2022-12-13T09:02:15.477Z,64.17
2022-12-13T09:04:43.564Z,63.94
2022-12-13T09:07:11.116Z,64.08
2022-12-13T09:09:38.676Z,63.57
2022-12-13T09:12:11.180Z,63.20
2022-12-13T09:15:01.579Z,62.87
2022-12-13T09:17:36.823Z,62.45
2022-12-13T09:20:09.823Z,62.49
2022-12-13T09:23:01.382Z,62.45
2022-12-13T09:25:37.400Z,62.96
2022-12-13T09:28:07.555Z,63.45
2022-12-13T09:30:35.203Z,63.01
2022-12-13T09:33:17.601Z,63.12
2022-12-13T09:35:51.910Z,62.45
2022-12-13T09:38:19.598Z,62.45
2022-12-13T09:40:50.121Z,62.30
2022-12-13T09:43:33.064Z,62.27
2022-12-13T09:46:13.454Z,62.68
2022-12-13T09:48:53.260Z,62.69
2022-12-13T09:51:43.879Z,63.61
2022-12-13T09:54:19.391Z,62.87
2022-12-13T09:56:50.578Z,62.57
2022-12-13T09:59:22.371Z,61.37
2022-12-13T10:01:50.048Z,61.24
2022-12-13T10:04:19.197Z,60.66
2022-12-13T10:06:46.744Z,60.51
2022-12-13T10:09:15.256Z,60.71
2022-12-13T10:11:50.800Z,60.41
2022-12-13T10:14:24.531Z,60.05
2022-12-13T10:16:54.036Z,60.17
2022-12-13T10:19:30.429Z,59.51
2022-12-13T10:22:01.679Z,59.69
2022-12-13T10:24:36.884Z,59.14
2022-12-13T10:27:13.042Z,58.44
2022-12-13T10:30:02.758Z,59.42
2022-12-13T10:32:37.451Z,58.78
2022-12-13T10:35:22.702Z,57.49
2022-12-13T10:37:50.414Z,59.28
2022-12-13T10:40:45.326Z,58.44
2022-12-13T10:43:14.884Z,59.93
2022-12-13T10:45:43.115Z,58.88
2022-12-13T10:48:21.041Z,57.16
2022-12-13T10:51:01.525Z,56.77
2022-12-13T10:53:33.474Z,58.13
2022-12-13T10:56:02.793Z,57.84
2022-12-13T10:58:39.779Z,57.32
2022-12-13T11:01:23.832Z,57.95
2022-12-13T11:04:02.117Z,58.57
2022-12-13T11:06:43.951Z,56.94
2022-12-13T11:09:22.993Z,56.46
2022-12-13T11:11:58.526Z,56.26
2022-12-13T11:14:31.884Z,56.09
2022-12-13T11:17:08.583Z,56.59
2022-12-13T11:19:40.797Z,55.75
2022-12-13T11:22:11.550Z,55.61
2022-12-13T11:24:42.186Z,55.63
2022-12-13T11:27:27.962Z,54.50
2022-12-13T11:30:09.704Z,54.48
2022-12-13T11:32:58.869Z,55.45
2022-12-13T11:35:33.742Z,55.47
2022-12-13T11:38:13.319Z,55.93
2022-12-13T11:40:45.763Z,55.08
2022-12-13T11:43:22.871Z,54.99
2022-12-13T11:45:55.941Z,54.77
2022-12-13T11:48:33.223Z,54.63
2022-12-13T11:51:02.118Z,54.58
2022-12-13T11:53:35.405Z,54.40
2022-12-13T11:56:08.950Z,54.00
2022-12-13T11:59:02.294Z,55.25
2022-12-13T12:01:38.371Z,54.81
2022-12-13T12:04:16.239Z,53.70
2022-12-13T12:06:49.061Z,54.15
2022-12-13T12:09:20.106Z,53.71
2022-12-13T12:11:52.894Z,52.74
2022-12-13T12:14:23.280Z,52.01
2022-12-13T12:16:53.817Z,52.00
2022-12-13T12:19:24.119Z,51.85
2022-12-13T12:22:15.815Z,51.65
2022-12-13T12:24:58.285Z,49.54
2022-12-13T12:27:36.779Z,49.82
2022-12-13T12:30:23.568Z,49.78
2022-12-13T12:33:04.966Z,50.23
2022-12-13T12:35:53.967Z,50.60
2022-12-13T12:38:57.452Z,50.94
2022-12-13T12:41:31.611Z,50.81
2022-12-13T12:44:09.080Z,52.19
2022-12-13T12:47:09.150Z,52.17
2022-12-13T12:50:15.437Z,51.63
2022-12-13T12:52:54.721Z,51.85
2022-12-13T12:55:31.422Z,51.95
2022-12-13T12:58:10.042Z,52.30
2022-12-13T13:00:49.951Z,52.29
2022-12-13T13:03:23.239Z,52.67
2022-12-13T13:06:01.667Z,52.45
2022-12-13T13:08:36.811Z,52.83
2022-12-13T13:11:24.314Z,53.11
2022-12-13T13:14:23.763Z,52.48
2022-12-13T13:16:51.351Z,53.38
2022-12-13T13:19:43.941Z,52.75
2022-12-13T13:22:32.076Z,52.99
2022-12-13T13:25:30.986Z,53.33
2022-12-13T13:28:05.400Z,53.65
2022-12-13T13:30:36.353Z,53.64
2022-12-13T13:33:04.218Z,53.99
2022-12-13T13:35:54.248Z,53.47
2022-12-13T13:38:55.460Z,53.58
2022-12-13T13:41:55.004Z,53.69
2022-12-13T13:44:58.039Z,55.64
2022-12-13T13:47:45.461Z,54.07
2022-12-13T13:50:37.593Z,54.10
2022-12-13T13:53:42.012Z,54.32
2022-12-13T13:56:40.897Z,54.40
2022-12-13T14:00:01.198Z,54.26
2022-12-13T14:03:22.272Z,54.14
2022-12-13T14:06:35.475Z,54.30
2022-12-13T14:09:38.353Z,54.80
2022-12-13T14:12:51.580Z,54.74
2022-12-13T14:16:00.628Z,55.03
2022-12-13T14:19:08.555Z,55.14
2022-12-13T14:21:47.592Z,55.48
2022-12-13T14:24:26.473Z,55.59
2022-12-13T14:27:06.868Z,55.78
2022-12-13T14:29:38.640Z,55.93
2022-12-13T14:32:11.043Z,56.26
2022-12-13T14:34:56.827Z,56.60
2022-12-13T14:37:28.608Z,56.54
2022-12-13T14:39:56.786Z,57.09
2022-12-13T14:42:27.188Z,56.28
2022-12-13T14:44:54.707Z,56.67
2022-12-13T14:47:22.952Z,56.76
2022-12-13T14:49:55.293Z,57.10
2022-12-13T14:52:27.566Z,56.88
2022-12-13T14:54:58.710Z,56.68
2022-12-13T14:57:28.430Z,56.63
2022-12-13T14:59:58.096Z,57.26
2022-12-13T15:02:31.044Z,56.76
2022-12-13T15:05:00.762Z,56.76
2022-12-13T15:07:33.634Z,57.22
2022-12-13T15:10:02.483Z,57.20
2022-12-13T15:12:30.908Z,57.52
2022-12-13T15:15:00.921Z,57.44
2022-12-13T15:17:34.448Z,57.60
2022-12-13T15:20:18.953Z,57.56
2022-12-13T15:22:48.257Z,57.93
2022-12-13T15:25:17.166Z,58.00
2022-12-13T15:27:48.593Z,58.08
2022-12-13T15:30:16.602Z,58.15
2022-12-13T15:33:08.946Z,58.54
2022-12-13T15:35:38.402Z,58.31
2022-12-13T15:38:13.331Z,58.39
2022-12-13T15:40:56.376Z,58.64
2022-12-13T15:43:32.134Z,58.89
2022-12-13T15:46:02.576Z,58.95
2022-12-13T15:48:33.745Z,59.06
2022-12-13T15:51:10.435Z,59.88
2022-12-13T15:53:40.222Z,59.80
2022-12-13T15:56:30.097Z,60.29
2022-12-13T15:58:58.099Z,59.77
2022-12-13T16:01:27.867Z,59.98
2022-12-13T16:03:55.827Z,60.08
2022-12-13T16:06:26.493Z,60.21
2022-12-13T16:08:57.927Z,60.51
2022-12-13T16:11:31.759Z,60.57
2022-12-13T16:14:27.312Z,60.82
2022-12-13T16:16:54.988Z,60.46
2022-12-13T16:19:22.994Z,61.38
2022-12-13T16:21:50.734Z,61.91
2022-12-13T16:24:19.643Z,61.59
2022-12-13T16:26:48.785Z,61.68
2022-12-13T16:29:19.325Z,61.51
2022-12-13T16:31:47.437Z,61.44
2022-12-13T16:34:17.371Z,61.75
2022-12-13T16:36:47.464Z,61.03
2022-12-13T16:39:15.712Z,60.48
2022-12-13T16:41:46.698Z,60.88
2022-12-13T16:44:22.725Z,61.14
2022-12-13T16:47:14.280Z,60.86
2022-12-13T16:49:38.000Z,60.69
2022-12-13T16:52:07.633Z,60.96
2022-12-13T16:54:35.544Z,60.78
2022-12-13T16:57:04.522Z,62.10
2022-12-13T16:59:32.065Z,61.84
2022-12-13T17:01:59.654Z,61.48
2022-12-13T17:04:27.990Z,61.40
2022-12-13T17:06:55.823Z,61.65
2022-12-13T17:09:24.154Z,61.86
2022-12-13T17:11:51.761Z,61.93
2022-12-13T17:14:20.709Z,61.59
2022-12-13T17:16:48.389Z,60.69
2022-12-13T17:19:17.407Z,60.40
2022-12-13T17:21:45.230Z,60.61
2022-12-13T17:24:12.853Z,60.70
2022-12-13T17:26:40.464Z,60.71
2022-12-13T17:29:10.838Z,60.83
2022-12-13T17:31:43.087Z,60.37
2022-12-13T17:34:10.635Z,60.77
2022-12-13T17:36:38.221Z,60.66
2022-12-13T17:39:05.796Z,60.64
2022-12-13T17:41:33.339Z,60.71
2022-12-13T17:44:01.359Z,60.72
2022-12-13T17:46:29.153Z,61.42
2022-12-13T17:48:58.100Z,61.45
2022-12-13T17:51:25.650Z,60.92
2022-12-13T17:53:53.453Z,60.93
2022-12-13T17:56:22.014Z,61.01
2022-12-13T17:58:49.688Z,61.01
2022-12-13T18:01:20.891Z,60.55
2022-12-13T18:03:49.769Z,60.55
2022-12-13T18:06:18.887Z,60.57
2022-12-13T18:08:47.731Z,60.22
2022-12-13T18:11:34.313Z,60.37
2022-12-13T18:14:03.161Z,60.00
2022-12-13T18:16:36.889Z,60.23
2022-12-13T18:19:06.973Z,60.51
2022-12-13T18:21:36.870Z,60.18
2022-12-13T18:24:06.067Z,60.52
2022-12-13T18:26:34.137Z,60.64
2022-12-13T18:29:02.025Z,60.36
2022-12-13T18:31:29.652Z,60.60
2022-12-13T18:33:57.320Z,60.69
2022-12-13T18:36:26.527Z,60.61
2022-12-13T18:38:55.615Z,60.61
2022-12-13T18:41:24.840Z,60.75
2022-12-13T18:43:56.709Z,61.24
2022-12-13T18:46:28.036Z,61.06
2022-12-13T18:48:55.667Z,60.95
2022-12-13T18:51:23.350Z,60.95
2022-12-13T18:53:52.481Z,60.75
2022-12-13T18:56:21.428Z,60.72
2022-12-13T18:58:49.755Z,60.76
2022-12-13T19:01:18.618Z,61.72
2022-12-13T19:03:48.191Z,61.19
2022-12-13T19:06:18.036Z,61.39
2022-12-13T19:08:48.340Z,61.64
2022-12-13T19:11:16.396Z,61.25
2022-12-13T19:13:45.746Z,60.98
2022-12-13T19:16:15.297Z,60.90
2022-12-13T19:18:43.365Z,60.78
2022-12-13T19:21:14.593Z,61.01
2022-12-13T19:23:42.838Z,61.21
2022-12-13T19:26:12.904Z,60.81
2022-12-13T19:28:42.359Z,60.77
2022-12-13T19:31:12.827Z,60.99
2022-12-13T19:33:40.841Z,60.90
2022-12-13T19:36:09.538Z,60.06
2022-12-13T19:38:37.956Z,60.19
2022-12-13T19:41:09.872Z,60.27
2022-12-13T19:43:37.806Z,60.41
2022-12-13T19:46:05.917Z,60.31
2022-12-13T19:48:37.554Z,60.59
2022-12-13T19:51:07.296Z,60.76
2022-12-13T19:53:35.593Z,60.82
2022-12-13T19:56:03.308Z,61.14
2022-12-13T19:58:30.835Z,61.82
2022-12-13T20:01:02.811Z,61.66
2022-12-13T20:03:33.125Z,60.98
2022-12-13T20:06:03.320Z,60.37
2022-12-13T20:08:30.924Z,60.41
2022-12-13T20:10:59.871Z,59.98
2022-12-13T20:13:28.492Z,60.42
2022-12-13T20:15:56.497Z,60.17
2022-12-13T20:18:24.251Z,60.17
2022-12-13T20:21:11.069Z,60.12
2022-12-13T20:23:42.249Z,60.42
2022-12-13T20:26:19.276Z,59.97
2022-12-13T20:28:46.857Z,60.27
2022-12-13T20:31:16.528Z,60.29
2022-12-13T20:33:44.120Z,60.21
2022-12-13T20:36:24.129Z,60.12
2022-12-13T20:38:55.850Z,60.32
2022-12-13T20:41:24.804Z,60.59
2022-12-13T20:43:53.337Z,60.50
2022-12-13T20:46:21.350Z,60.76
2022-12-13T20:48:49.918Z,60.70
2022-12-13T20:51:19.247Z,60.88
2022-12-13T20:53:48.755Z,60.84
2022-12-13T20:56:19.513Z,60.83
2022-12-13T20:58:47.559Z,61.53
2022-12-13T21:01:16.620Z,61.99
2022-12-13T21:03:44.822Z,61.43
2022-12-13T21:06:12.746Z,60.89
2022-12-13T21:08:52.643Z,61.13
2022-12-13T21:11:26.382Z,61.60
2022-12-13T21:14:05.287Z,61.44
2022-12-13T21:16:38.289Z,61.60
2022-12-13T21:19:07.185Z,61.10
2022-12-13T21:21:35.118Z,60.94
2022-12-13T21:24:03.468Z,61.46
2022-12-13T21:26:35.785Z,61.17
2022-12-13T21:29:07.178Z,61.29
2022-12-13T21:31:35.710Z,61.19
2022-12-13T21:34:03.668Z,61.30
2022-12-13T21:36:32.703Z,61.20
2022-12-13T21:39:01.950Z,61.20
2022-12-13T21:41:29.920Z,61.33
2022-12-13T21:44:00.505Z,61.47
2022-12-13T21:46:47.939Z,61.60
2022-12-13T21:49:17.443Z,61.24
2022-12-13T21:51:48.125Z,61.23
2022-12-13T21:54:16.441Z,61.51
2022-12-13T21:57:01.752Z,61.79
2022-12-13T21:59:30.880Z,61.60
2022-12-13T22:02:12.818Z,61.86
2022-12-13T22:04:43.471Z,61.70
2022-12-13T22:07:13.526Z,61.79
2022-12-13T22:09:41.272Z,61.60
2022-12-13T22:12:10.213Z,61.89
2022-12-13T22:14:39.099Z,62.06
2022-12-13T22:17:06.629Z,61.99
2022-12-13T22:19:34.155Z,62.19
2022-12-13T22:22:01.753Z,62.41
2022-12-13T22:24:29.320Z,62.17
2022-12-13T22:26:57.005Z,62.14
2022-12-13T22:29:24.744Z,61.96
2022-12-13T22:31:53.686Z,62.29
2022-12-13T22:34:21.267Z,61.96
2022-12-13T22:36:48.853Z,62.10
2022-12-13T22:39:17.853Z,62.38
2022-12-13T22:41:46.122Z,62.20
2022-12-13T22:44:14.283Z,62.63
2022-12-13T22:46:42.531Z,62.47
2022-12-13T22:49:12.010Z,62.55
2022-12-13T22:51:40.075Z,62.23
2022-12-13T22:54:07.870Z,62.66
2022-12-13T22:56:36.353Z,62.71
2022-12-13T22:59:07.104Z,62.57
2022-12-13T23:01:37.341Z,62.92
2022-12-13T23:04:05.922Z,62.91
2022-12-13T23:06:36.981Z,63.04
2022-12-13T23:09:06.678Z,62.77
2022-12-13T23:11:52.085Z,63.10
2022-12-13T23:14:21.760Z,63.04
2022-12-13T23:16:49.365Z,63.20
2022-12-13T23:19:41.638Z,63.01
2022-12-13T23:22:08.435Z,63.25
2022-12-13T23:24:35.998Z,63.14
2022-12-13T23:27:03.808Z,63.03
2022-12-13T23:29:31.615Z,63.11
2022-12-13T23:31:59.201Z,63.34
2022-12-13T23:34:26.784Z,63.17
2022-12-13T23:36:54.292Z,63.20
2022-12-13T23:39:23.178Z,63.24
2022-12-13T23:41:50.780Z,63.29
2022-12-13T23:44:18.325Z,63.21
2022-12-13T23:46:48.532Z,63.41
2022-12-13T23:49:18.192Z,63.12
2022-12-13T23:51:45.730Z,63.34
2022-12-13T23:54:16.361Z,63.32
2022-12-13T23:56:45.451Z,63.37
2022-12-13T23:59:13.241Z,63.45
